Time;durP1;ratioP1;P1;durP2;ratioP2;P2;SDS_P1;SDS_P2;PMS_P1;PMS_P2;Temp;Humidity;BMP_temperature;BMP_pressure;BME280_temperature;BME280_humidity;BME280_pressure;Samples;Min_cycle;Max_cycle;Signal;HPM_P1;HPM_P2
2022/01/04 00:00:23;;;;;;;5.00;1.38;;;16.60;78.10;;;;;;2285079;62;30216;-66
2022/01/04 00:02:49;;;;;;;6.00;1.60;;;16.60;78.20;;;;;;2284929;62;30268;-67
2022/01/04 00:05:14;;;;;;;5.85;1.63;;;16.50;78.20;;;;;;2277858;62;31513;-66
2022/01/04 00:07:40;;;;;;;3.65;1.50;;;16.50;78.30;;;;;;2285372;62;30321;-67
2022/01/04 00:10:08;;;;;;;4.28;1.65;;;16.50;78.40;;;;;;2285019;62;30316;-66
2022/01/04 00:15:20;;;;;;;5.03;1.52;;;16.40;78.50;;;;;;2278871;62;30278;-66
2022/01/04 00:17:46;;;;;;;4.35;1.55;;;16.30;78.50;;;;;;2284608;62;30220;-66
2022/01/04 00:20:11;;;;;;;4.00;1.70;;;16.30;78.60;;;;;;2285102;62;30224;-66
2022/01/04 00:22:38;;;;;;;6.15;1.88;;;16.30;78.60;;;;;;2277855;62;30011;-67
2022/01/04 00:25:05;;;;;;;2.30;1.35;;;16.20;78.60;;;;;;2277545;62;30255;-66
2022/01/04 00:27:30;;;;;;;6.32;2.05;;;16.20;78.70;;;;;;2270978;62;30263;-67
2022/01/04 00:29:56;;;;;;;2.72;1.58;;;16.20;78.80;;;;;;2284936;62;30293;-66
2022/01/04 00:32:22;;;;;;;5.13;1.63;;;16.10;78.70;;;;;;2285190;62;30279;-67
2022/01/04 00:34:48;;;;;;;3.58;1.60;;;16.10;78.80;;;;;;2284949;62;31547;-67
2022/01/04 00:37:14;;;;;;;3.33;1.73;;;16.10;78.80;;;;;;2284549;62;30115;-66
2022/01/04 00:39:40;;;;;;;4.50;1.80;;;16.10;78.90;;;;;;2285166;62;30212;-66
2022/01/04 00:42:06;;;;;;;3.08;1.60;;;16.00;78.90;;;;;;2285157;62;30150;-66
2022/01/04 00:44:32;;;;;;;4.90;1.73;;;16.00;79.00;;;;;;2284793;62;30490;-66
2022/01/04 00:46:59;;;;;;;2.83;1.48;;;16.00;79.00;;;;;;2285183;62;30370;-66
2022/01/04 00:49:25;;;;;;;3.95;1.65;;;15.90;79.00;;;;;;2285063;62;30280;-66
2022/01/04 00:51:51;;;;;;;4.35;1.63;;;15.90;79.10;;;;;;2284751;62;30160;-66
2022/01/04 00:54:18;;;;;;;3.42;1.63;;;15.90;79.10;;;;;;2284786;62;31195;-66
2022/01/04 00:56:44;;;;;;;4.40;1.77;;;15.90;79.20;;;;;;2277656;62;30314;-66
2022/01/04 00:59:13;;;;;;;3.75;1.90;;;15.80;79.20;;;;;;2277372;62;30090;-66
2022/01/04 01:01:40;;;;;;;4.05;1.88;;;15.80;79.30;;;;;;2277800;62;30455;-67
2022/01/04 01:04:06;;;;;;;5.40;1.73;;;15.80;79.30;;;;;;2284213;62;31091;-66
2022/01/04 01:06:32;;;;;;;3.80;1.70;;;15.80;79.40;;;;;;2284620;62;30582;-67
2022/01/04 01:08:58;;;;;;;5.35;1.52;;;15.70;79.30;;;;;;2284839;62;30137;-66
2022/01/04 01:11:27;;;;;;;4.40;1.67;;;15.70;79.40;;;;;;2270993;62;30477;-67
2022/01/04 01:13:53;;;;;;;6.00;2.10;;;15.70;79.40;;;;;;2285110;62;30178;-67
2022/01/04 01:16:19;;;;;;;3.70;1.85;;;15.70;79.50;;;;;;2284728;62;30152;-66
2022/01/04 01:18:45;;;;;;;3.80;1.85;;;15.60;79.50;;;;;;2277524;62;30339;-66
2022/01/04 01:21:11;;;;;;;3.95;1.65;;;15.60;79.50;;;;;;2284399;62;30206;-66
2022/01/04 01:23:38;;;;;;;3.72;1.83;;;15.60;79.60;;;;;;2284790;62;30225;-66
2022/01/04 01:26:05;;;;;;;4.45;1.63;;;15.60;79.60;;;;;;2277352;62;30570;-67
2022/01/04 01:28:33;;;;;;;3.45;1.60;;;15.60;79.70;;;;;;2284745;62;30256;-66
2022/01/04 01:30:59;;;;;;;3.35;1.80;;;15.50;79.70;;;;;;2284777;62;30108;-66
2022/01/04 01:33:27;;;;;;;3.22;1.73;;;15.50;79.70;;;;;;2277236;62;30261;-66
2022/01/04 01:35:56;;;;;;;5.00;1.85;;;15.50;79.80;;;;;;2284633;62;30729;-67
2022/01/04 01:38:23;;;;;;;4.25;1.80;;;15.50;79.80;;;;;;2284646;62;30076;-66
2022/01/04 01:40:49;;;;;;;2.97;1.60;;;15.40;79.80;;;;;;2277208;62;30160;-66
2022/01/04 01:43:15;;;;;;;3.65;1.65;;;15.40;79.90;;;;;;2284665;62;30277;-66
2022/01/04 01:45:41;;;;;;;3.78;2.20;;;15.40;79.90;;;;;;2284768;62;30714;-66
2022/01/04 01:48:07;;;;;;;4.32;2.05;;;15.40;80.00;;;;;;2284436;62;30062;-66
2022/01/04 01:50:33;;;;;;;3.47;1.73;;;15.40;80.00;;;;;;2284667;62;30684;-67
2022/01/04 01:52:59;;;;;;;3.00;1.50;;;15.40;80.10;;;;;;2284705;62;30745;-67
2022/01/04 01:55:25;;;;;;;4.85;1.83;;;15.40;80.10;;;;;;2276946;62;30150;-67
2022/01/04 01:57:51;;;;;;;4.80;1.65;;;15.30;80.10;;;;;;2277324;62;30414;-66
2022/01/04 02:00:18;;;;;;;4.75;1.90;;;15.40;80.20;;;;;;2284710;62;30503;-67
2022/01/04 02:02:46;;;;;;;5.95;2.40;;;15.30;80.20;;;;;;2277011;62;30260;-67
2022/01/04 02:05:12;;;;;;;4.05;1.77;;;15.30;80.20;;;;;;2284266;62;30391;-67
2022/01/04 02:07:38;;;;;;;3.22;1.80;;;15.30;80.30;;;;;;2284666;62;30352;-67
2022/01/04 02:10:07;;;;;;;3.05;1.70;;;15.20;80.30;;;;;;2277164;62;30170;-67
2022/01/04 02:12:46;;;;;;;4.40;1.63;;;15.20;80.30;;;;;;2284741;62;30221;-67
2022/01/04 02:15:13;;;;;;;3.90;1.63;;;15.20;80.40;;;;;;2277594;62;30595;-66
2022/01/04 02:17:39;;;;;;;4.68;2.10;;;15.20;80.40;;;;;;2284440;62;30139;-67
2022/01/04 02:20:06;;;;;;;4.05;1.80;;;15.20;80.40;;;;;;2284501;62;30354;-66
2022/01/04 02:22:32;;;;;;;2.72;1.88;;;15.20;80.50;;;;;;2276826;62;30416;-67
2022/01/04 02:24:58;;;;;;;4.35;1.95;;;15.20;80.60;;;;;;2284508;62;30788;-67
2022/01/04 02:27:24;;;;;;;4.45;1.88;;;15.20;80.60;;;;;;2270297;62;30320;-67
2022/01/04 02:29:50;;;;;;;4.65;1.90;;;15.10;80.50;;;;;;2276888;62;30645;-67
2022/01/04 02:32:16;;;;;;;7.10;2.10;;;15.10;80.60;;;;;;2284574;62;30953;-67
2022/01/04 02:34:50;;;;;;;4.63;1.70;;;15.10;80.70;;;;;;2276439;62;30820;-67
2022/01/04 02:37:27;;;;;;;4.82;1.98;;;15.10;80.70;;;;;;2275345;62;30327;-67
2022/01/04 02:39:53;;;;;;;5.35;1.88;;;15.10;80.70;;;;;;2276307;62;30188;-67
2022/01/04 02:42:19;;;;;;;3.35;1.50;;;15.10;80.80;;;;;;2275529;62;30384;-67
2022/01/04 02:44:45;;;;;;;3.70;1.70;;;15.10;80.80;;;;;;2275517;62;30287;-67
2022/01/04 02:47:11;;;;;;;3.03;1.92;;;15.00;80.90;;;;;;2275665;62;30073;-67
2022/01/04 02:49:37;;;;;;;5.35;1.85;;;15.00;80.90;;;;;;2276176;62;30608;-67
2022/01/04 02:52:03;;;;;;;3.90;1.70;;;15.00;80.90;;;;;;2275838;62;30118;-67
2022/01/04 02:54:29;;;;;;;5.95;2.30;;;15.00;81.00;;;;;;2275495;62;32126;-67
2022/01/04 02:56:55;;;;;;;4.53;1.92;;;15.00;81.00;;;;;;2276320;62;30105;-67
2022/01/04 02:59:24;;;;;;;3.88;1.60;;;15.00;81.10;;;;;;2275911;62;30181;-66
2022/01/04 03:01:50;;;;;;;2.92;1.60;;;14.90;81.10;;;;;;2275187;62;30240;-66
2022/01/04 03:04:20;;;;;;;4.63;1.80;;;14.90;81.10;;;;;;2275879;62;30605;-66
2022/01/04 03:06:46;;;;;;;6.70;1.83;;;14.90;81.10;;;;;;2275251;62;30228;-66
2022/01/04 03:09:11;;;;;;;3.88;2.00;;;14.90;81.10;;;;;;2275971;62;30053;-66
2022/01/04 03:11:37;;;;;;;4.25;1.70;;;14.90;81.10;;;;;;2275317;62;31024;-66
2022/01/04 03:14:03;;;;;;;3.80;1.60;;;14.90;81.20;;;;;;2275464;62;31004;-67
2022/01/04 03:16:29;;;;;;;4.13;1.73;;;14.90;81.20;;;;;;2276089;62;30106;-66
2022/01/04 03:19:06;;;;;;;3.70;1.40;;;14.90;81.20;;;;;;2274710;62;30267;-66
2022/01/04 03:21:36;;;;;;;5.22;1.80;;;14.90;81.30;;;;;;2277470;62;30178;-66
2022/01/04 03:24:02;;;;;;;5.05;1.92;;;14.90;81.30;;;;;;2277336;62;30390;-66
2022/01/04 03:26:28;;;;;;;4.53;1.75;;;14.80;81.30;;;;;;2269992;62;30763;-66
2022/01/04 03:28:54;;;;;;;3.13;1.50;;;14.90;81.40;;;;;;2276853;62;30374;-66
2022/01/04 03:31:20;;;;;;;6.28;2.17;;;14.80;82.10;;;;;;2277263;62;30189;-66
2022/01/04 03:33:46;;;;;;;3.33;1.40;;;14.80;81.40;;;;;;2277063;62;30259;-66
2022/01/04 03:36:12;;;;;;;5.00;2.00;;;14.80;81.40;;;;;;2277128;62;30164;-67
2022/01/04 03:38:38;;;;;;;5.35;1.80;;;14.80;81.50;;;;;;2285248;62;30174;-66
2022/01/04 03:41:07;;;;;;;5.03;2.25;;;14.80;81.50;;;;;;2285291;62;31031;-66
2022/01/04 03:43:34;;;;;;;3.67;1.90;;;14.80;81.50;;;;;;2285355;62;32218;-66
2022/01/04 03:46:00;;;;;;;3.08;1.60;;;14.70;81.50;;;;;;2278115;62;30319;-66
2022/01/04 03:48:25;;;;;;;5.70;1.80;;;14.70;81.50;;;;;;2285023;62;30180;-66
2022/01/04 03:50:51;;;;;;;5.55;2.00;;;14.70;81.60;;;;;;2285493;62;30691;-66
2022/01/04 03:53:20;;;;;;;5.40;1.90;;;14.70;81.60;;;;;;2285250;62;31148;-66
2022/01/04 03:55:46;;;;;;;2.53;1.40;;;14.70;81.60;;;;;;2285131;62;30028;-66
2022/01/04 03:58:12;;;;;;;5.00;1.63;;;14.70;81.70;;;;;;2285239;62;30393;-66
2022/01/04 04:00:38;;;;;;;3.47;1.60;;;14.70;81.70;;;;;;2285290;62;31077;-66
2022/01/04 04:03:04;;;;;;;4.25;1.92;;;14.70;81.80;;;;;;2285064;62;30926;-66
2022/01/04 04:05:31;;;;;;;5.05;1.80;;;14.70;81.80;;;;;;2285348;62;30199;-66
2022/01/04 04:07:57;;;;;;;4.10;1.67;;;14.60;81.80;;;;;;2285052;62;30317;-66
2022/01/04 04:10:23;;;;;;;3.08;1.42;;;14.70;81.80;;;;;;2285060;62;30239;-66
2022/01/04 04:12:49;;;;;;;3.83;1.95;;;14.60;81.80;;;;;;2285149;62;30613;-66
2022/01/04 04:15:15;;;;;;;5.53;2.13;;;14.60;81.80;;;;;;2284561;62;30153;-66
2022/01/04 04:17:40;;;;;;;3.70;1.70;;;14.60;81.80;;;;;;2285095;62;30149;-66
2022/01/04 04:20:07;;;;;;;4.25;1.80;;;14.60;81.80;;;;;;2284736;62;32313;-66
2022/01/04 04:22:32;;;;;;;4.43;1.80;;;14.60;81.90;;;;;;2284982;62;30528;-66
2022/01/04 04:24:58;;;;;;;3.30;1.70;;;14.60;82.00;;;;;;2285112;62;30412;-66
2022/01/04 04:27:24;;;;;;;4.95;1.90;;;14.60;82.00;;;;;;2285160;62;30321;-66
2022/01/04 04:29:50;;;;;;;3.72;1.70;;;14.60;82.00;;;;;;2284968;62;30963;-66
2022/01/04 04:32:16;;;;;;;4.47;1.77;;;14.60;82.00;;;;;;2277762;62;30160;-66
2022/01/04 04:34:42;;;;;;;4.25;1.80;;;14.60;82.00;;;;;;2285018;62;30191;-66
2022/01/04 04:37:08;;;;;;;3.92;1.65;;;14.60;82.10;;;;;;2284773;62;30324;-66
2022/01/04 04:39:34;;;;;;;3.35;1.73;;;14.60;82.10;;;;;;2284725;62;30392;-66
2022/01/04 04:41:59;;;;;;;3.78;1.67;;;14.60;82.10;;;;;;2285300;62;30218;-66
2022/01/04 04:44:26;;;;;;;5.80;2.15;;;14.50;82.10;;;;;;2285042;62;30129;-66
2022/01/04 04:46:52;;;;;;;4.68;1.85;;;14.50;82.20;;;;;;2285043;62;30387;-66
2022/01/04 04:49:17;;;;;;;4.47;1.52;;;14.50;82.20;;;;;;2284484;62;30973;-66
2022/01/04 04:51:43;;;;;;;6.13;1.90;;;14.50;82.20;;;;;;2284534;62;30616;-66
2022/01/04 04:54:09;;;;;;;4.18;1.80;;;14.50;82.30;;;;;;2285027;62;30193;-66
2022/01/04 04:56:38;;;;;;;4.65;2.30;;;14.50;82.30;;;;;;2284917;62;30046;-66
2022/01/04 04:59:05;;;;;;;4.47;1.92;;;14.50;82.30;;;;;;2277561;62;30184;-66
2022/01/04 05:01:31;;;;;;;4.72;1.67;;;14.50;82.30;;;;;;2285056;62;30570;-66
2022/01/04 05:03:57;;;;;;;3.55;1.60;;;14.50;82.30;;;;;;2284836;62;30372;-66
2022/01/04 05:06:25;;;;;;;5.18;2.17;;;14.50;82.30;;;;;;2284789;62;30451;-66
2022/01/04 05:08:52;;;;;;;4.90;2.10;;;14.50;82.40;;;;;;2285042;62;30088;-66
2022/01/04 05:11:21;;;;;;;3.20;1.60;;;14.50;82.40;;;;;;2284918;62;30035;-66
2022/01/04 05:13:47;;;;;;;4.97;1.70;;;14.40;82.30;;;;;;2270837;62;30584;-66
2022/01/04 05:16:12;;;;;;;3.40;1.67;;;14.40;82.40;;;;;;2284883;62;30135;-66
2022/01/04 05:18:38;;;;;;;5.18;1.95;;;14.40;82.40;;;;;;2284483;62;30867;-66
2022/01/04 05:21:04;;;;;;;4.20;1.58;;;14.40;82.40;;;;;;2284922;62;30619;-66
2022/01/04 05:23:31;;;;;;;2.72;1.70;;;14.40;82.40;;;;;;2284774;62;30325;-66
2022/01/04 05:25:56;;;;;;;4.18;1.77;;;14.40;82.50;;;;;;2284549;62;30513;-66
2022/01/04 05:28:22;;;;;;;4.63;1.80;;;14.40;82.50;;;;;;2277413;62;30307;-65
2022/01/04 05:30:48;;;;;;;2.95;1.63;;;14.40;82.50;;;;;;2277465;62;30141;-66
2022/01/04 05:33:15;;;;;;;3.47;1.60;;;14.40;82.50;;;;;;2284286;62;30089;-66
2022/01/04 05:35:41;;;;;;;3.88;1.88;;;14.40;82.60;;;;;;2277419;62;30243;-66
2022/01/04 05:38:07;;;;;;;4.60;1.85;;;14.30;82.60;;;;;;2284508;62;30870;-66
2022/01/04 05:40:34;;;;;;;2.97;1.73;;;14.30;82.60;;;;;;2284575;62;30454;-66
2022/01/04 05:43:00;;;;;;;3.72;1.65;;;14.30;82.60;;;;;;2284425;62;30158;-66
2022/01/04 05:45:26;;;;;;;3.70;1.98;;;14.30;82.70;;;;;;2277416;62;30267;-66
2022/01/04 05:47:57;;;;;;;4.45;1.77;;;14.30;82.70;;;;;;2284336;62;30107;-67
2022/01/04 05:50:23;;;;;;;3.72;1.80;;;14.30;82.70;;;;;;2284216;62;30227;-66
2022/01/04 05:52:51;;;;;;;4.07;1.70;;;14.30;82.70;;;;;;2270634;62;30089;-66
2022/01/04 05:55:17;;;;;;;3.85;1.63;;;14.30;82.70;;;;;;2284652;62;30540;-66
2022/01/04 05:57:42;;;;;;;4.22;1.70;;;14.30;82.70;;;;;;2284640;62;30275;-66
2022/01/04 06:00:09;;;;;;;4.72;2.00;;;14.30;82.70;;;;;;2284718;62;30731;-67
2022/01/04 06:02:35;;;;;;;3.10;1.55;;;14.30;82.70;;;;;;2277015;62;30143;-66
2022/01/04 06:05:01;;;;;;;5.20;1.90;;;14.30;82.80;;;;;;2284707;62;30039;-66
2022/01/04 06:07:29;;;;;;;5.90;1.67;;;14.30;82.80;;;;;;2276981;62;30433;-67
2022/01/04 06:09:55;;;;;;;4.38;1.80;;;14.30;82.80;;;;;;2284704;62;30276;-66
2022/01/04 06:14:58;;;;;;;3.55;1.80;;;14.20;82.80;;;;;;2284464;62;30053;-67
2022/01/04 06:17:28;;;;;;;4.47;2.10;;;14.20;82.90;;;;;;2276973;62;30951;-67
2022/01/04 06:19:58;;;;;;;3.83;1.60;;;14.20;82.90;;;;;;2283979;62;30255;-67
2022/01/04 06:22:28;;;;;;;2.50;1.70;;;14.20;82.90;;;;;;2284157;62;30052;-67
2022/01/04 06:24:54;;;;;;;4.00;1.60;;;14.20;82.90;;;;;;2277281;62;30275;-66
2022/01/04 06:27:20;;;;;;;2.88;1.60;;;14.20;83.00;;;;;;2277133;62;30096;-66
2022/01/04 06:29:46;;;;;;;5.43;1.95;;;14.20;83.00;;;;;;2276862;62;31666;-66
2022/01/04 06:32:13;;;;;;;3.83;2.03;;;14.20;83.00;;;;;;2277173;62;30238;-66
2022/01/04 06:34:39;;;;;;;2.35;1.77;;;14.20;83.10;;;;;;2284144;62;30254;-66
2022/01/04 06:37:05;;;;;;;3.80;1.83;;;14.20;83.10;;;;;;2275123;62;30995;-66
2022/01/04 06:39:31;;;;;;;3.42;1.60;;;14.20;83.10;;;;;;2276215;62;30354;-66
2022/01/04 06:41:57;;;;;;;3.65;1.73;;;14.20;83.10;;;;;;2275657;62;30262;-66
2022/01/04 06:44:24;;;;;;;3.80;1.98;;;14.20;83.10;;;;;;2275893;62;30102;-66
2022/01/04 06:46:50;;;;;;;2.65;1.52;;;14.20;83.10;;;;;;2275677;62;32773;-66
2022/01/04 06:49:16;;;;;;;3.90;2.03;;;14.10;83.10;;;;;;2275217;62;30193;-66
2022/01/04 06:51:42;;;;;;;4.93;1.70;;;14.10;83.10;;;;;;2275199;62;30291;-66
2022/01/04 06:54:09;;;;;;;2.67;1.40;;;14.10;83.10;;;;;;2269270;62;30343;-66
2022/01/04 06:56:35;;;;;;;4.85;1.83;;;14.10;83.10;;;;;;2276426;62;30056;-66
2022/01/04 06:59:03;;;;;;;4.03;1.70;;;14.10;83.10;;;;;;2276690;62;30168;-66
2022/01/04 07:01:29;;;;;;;3.28;1.55;;;14.10;83.20;;;;;;2276920;62;30211;-66
2022/01/04 07:03:59;;;;;;;3.55;1.67;;;14.10;83.20;;;;;;2276573;62;30227;-66
2022/01/04 07:06:25;;;;;;;4.00;1.65;;;14.10;83.20;;;;;;2277288;62;30977;-66
2022/01/04 07:08:55;;;;;;;3.15;1.58;;;14.10;83.20;;;;;;2277403;62;30284;-66
2022/01/04 07:11:21;;;;;;;2.65;1.50;;;14.10;83.20;;;;;;2277280;62;30280;-66
2022/01/04 07:13:46;;;;;;;3.53;1.60;;;14.10;83.20;;;;;;2277405;62;30313;-66
2022/01/04 07:16:12;;;;;;;3.05;1.77;;;14.10;83.30;;;;;;2277349;62;30264;-66
2022/01/04 07:18:38;;;;;;;6.47;2.10;;;14.10;83.20;;;;;;2276504;62;30327;-66
2022/01/04 07:21:05;;;;;;;3.30;1.77;;;14.10;83.30;;;;;;2277267;62;30148;-66
2022/01/04 07:23:31;;;;;;;4.43;1.70;;;14.10;83.30;;;;;;2277360;62;30017;-66
2022/01/04 07:25:57;;;;;;;3.47;1.58;;;14.00;83.20;;;;;;2269809;62;30937;-66
2022/01/04 07:28:23;;;;;;;2.95;1.77;;;14.10;83.30;;;;;;2277192;62;30114;-66
2022/01/04 07:30:49;;;;;;;4.50;1.98;;;14.00;83.30;;;;;;2276574;62;30079;-66
2022/01/04 07:33:17;;;;;;;5.55;1.65;;;14.00;83.30;;;;;;2276819;62;30155;-66
2022/01/04 07:35:43;;;;;;;3.10;1.50;;;14.00;83.30;;;;;;2277060;62;31024;-66
2022/01/04 07:38:12;;;;;;;3.45;1.48;;;14.00;83.30;;;;;;2284118;62;30406;-66
2022/01/04 07:40:38;;;;;;;2.90;1.70;;;14.00;83.30;;;;;;2285303;62;30117;-66
2022/01/04 07:43:04;;;;;;;2.78;1.70;;;14.00;83.30;;;;;;2285289;62;30400;-66
2022/01/04 07:45:30;;;;;;;3.55;1.55;;;14.00;83.30;;;;;;2278093;62;32361;-66
2022/01/04 07:47:56;;;;;;;5.55;1.90;;;14.00;83.30;;;;;;2285043;62;30564;-66
2022/01/04 07:50:22;;;;;;;2.38;1.50;;;14.00;83.30;;;;;;2278026;62;30377;-67
2022/01/04 07:52:48;;;;;;;3.35;1.85;;;14.00;83.30;;;;;;2285352;62;30447;-66
2022/01/04 07:55:14;;;;;;;4.10;1.70;;;14.00;83.40;;;;;;2285118;62;30331;-66
2022/01/04 07:57:41;;;;;;;3.10;1.50;;;14.00;83.40;;;;;;2285407;62;32162;-66
2022/01/04 08:00:11;;;;;;;3.40;1.67;;;14.00;83.30;;;;;;2285043;62;30316;-66
2022/01/04 08:02:38;;;;;;;4.47;1.90;;;14.00;83.40;;;;;;2278127;62;30337;-66
2022/01/04 08:05:10;;;;;;;3.70;1.60;;;14.00;83.40;;;;;;2277863;62;30033;-67
2022/01/04 08:07:36;;;;;;;2.80;1.42;;;14.00;83.40;;;;;;2280008;62;30648;-66
2022/01/04 08:10:04;;;;;;;2.20;1.58;;;14.00;83.40;;;;;;2285795;62;30224;-66
2022/01/04 08:12:30;;;;;;;2.65;1.40;;;14.00;83.40;;;;;;2285305;62;30172;-66
2022/01/04 08:14:57;;;;;;;3.67;1.60;;;14.00;83.30;;;;;;2285074;62;30109;-66
2022/01/04 08:17:31;;;;;;;4.30;1.48;;;14.00;83.40;;;;;;2285262;62;30021;-66
2022/01/04 08:19:58;;;;;;;2.42;1.52;;;14.00;83.40;;;;;;2277849;62;30244;-67
2022/01/04 08:22:24;;;;;;;5.22;1.75;;;14.00;83.40;;;;;;2285078;62;30083;-66
2022/01/04 08:24:50;;;;;;;3.63;1.70;;;14.00;83.40;;;;;;2285121;62;30302;-66
2022/01/04 08:27:16;;;;;;;1.90;1.30;;;14.00;83.30;;;;;;2285242;62;31744;-66
2022/01/04 08:29:42;;;;;;;3.80;1.25;;;14.00;83.30;;;;;;2284972;62;30394;-66
2022/01/04 08:32:08;;;;;;;2.72;1.35;;;14.00;83.30;;;;;;2285134;62;30136;-66
2022/01/04 08:34:34;;;;;;;3.58;1.63;;;14.00;83.30;;;;;;2285083;62;31023;-66
2022/01/04 08:37:00;;;;;;;1.95;1.33;;;14.00;83.30;;;;;;2276096;62;30313;-66
2022/01/04 08:39:27;;;;;;;2.95;1.30;;;14.00;83.30;;;;;;2276539;62;30224;-66
2022/01/04 08:42:01;;;;;;;2.33;1.00;;;14.00;83.30;;;;;;2276750;62;30196;-66
2022/01/04 08:44:27;;;;;;;3.88;1.65;;;14.00;83.30;;;;;;2276412;62;30912;-66
2022/01/04 08:46:53;;;;;;;3.17;1.58;;;14.00;83.30;;;;;;2269628;62;30271;-66
2022/01/04 08:49:19;;;;;;;2.15;1.27;;;14.00;83.30;;;;;;2276675;62;30047;-67
2022/01/04 08:51:45;;;;;;;3.40;1.20;;;14.00;83.30;;;;;;2276922;62;30216;-67
2022/01/04 08:54:12;;;;;;;3.42;1.42;;;14.00;83.30;;;;;;2276852;62;31292;-66
2022/01/04 08:56:38;;;;;;;2.70;1.30;;;14.10;83.30;;;;;;2266403;62;30650;-66
2022/01/04 08:59:05;;;;;;;2.67;1.45;;;14.10;83.30;;;;;;2272110;62;30282;-67
2022/01/04 09:01:32;;;;;;;2.95;1.60;;;14.00;83.20;;;;;;2272031;62;30156;-67
2022/01/04 09:03:58;;;;;;;2.50;1.15;;;14.10;83.30;;;;;;2272246;62;31105;-67
2022/01/04 09:06:25;;;;;;;1.92;1.10;;;14.10;83.30;;;;;;2271944;62;30542;-66
2022/01/04 09:08:54;;;;;;;2.97;1.40;;;14.10;83.40;;;;;;2273819;62;30122;-66
2022/01/04 09:11:23;;;;;;;2.55;1.15;;;14.10;83.30;;;;;;2268570;62;30232;-66
2022/01/04 09:13:49;;;;;;;3.70;1.80;;;14.10;83.20;;;;;;2268534;62;30999;-67
2022/01/04 09:18:48;;;;;;;3.17;1.25;;;14.20;83.40;;;;;;2267968;62;30158;-66
2022/01/04 09:21:18;;;;;;;2.90;1.30;;;14.20;83.30;;;;;;2268599;62;30164;-66
2022/01/04 09:23:45;;;;;;;1.98;1.30;;;14.30;83.20;;;;;;2268893;62;31085;-66
2022/01/04 09:26:12;;;;;;;3.80;1.10;;;14.30;83.10;;;;;;2273452;62;31677;-66
2022/01/04 09:28:38;;;;;;;2.38;1.25;;;14.30;83.10;;;;;;2268949;62;30273;-65
2022/01/04 09:31:04;;;;;;;2.45;1.20;;;14.40;83.20;;;;;;2269347;62;30697;-65
2022/01/04 09:33:30;;;;;;;4.50;1.63;;;14.40;83.30;;;;;;2276244;62;30211;-66
2022/01/04 09:35:59;;;;;;;2.35;1.42;;;14.40;83.50;;;;;;2275916;62;30076;-66
2022/01/04 09:38:25;;;;;;;2.78;1.45;;;14.40;83.50;;;;;;2283968;62;30180;-66
2022/01/04 09:40:51;;;;;;;2.90;1.30;;;14.40;83.60;;;;;;2284579;62;30491;-66
2022/01/04 09:43:17;;;;;;;3.45;1.73;;;14.50;83.70;;;;;;2284722;62;30290;-66
2022/01/04 09:45:43;;;;;;;2.13;1.48;;;14.40;83.70;;;;;;2277149;62;30587;-66
2022/01/04 09:48:10;;;;;;;1.45;1.10;;;14.50;83.80;;;;;;2277404;62;30286;-66
2022/01/04 09:50:37;;;;;;;2.30;1.52;;;14.40;83.80;;;;;;2277498;62;30213;-68
2022/01/04 09:53:06;;;;;;;3.10;1.50;;;14.50;83.80;;;;;;2276944;62;30402;-68
2022/01/04 09:55:34;;;;;;;2.63;1.30;;;14.50;83.90;;;;;;2284055;62;30778;-68
2022/01/04 09:58:00;;;;;;;2.75;1.42;;;14.50;83.80;;;;;;2277288;62;30669;-68
2022/01/04 10:00:25;;;;;;;1.25;1.08;;;14.50;83.90;;;;;;2281499;62;30099;-68
2022/01/04 10:02:52;;;;;;;1.83;1.13;;;14.50;83.90;;;;;;2284445;62;30822;-68
2022/01/04 10:05:22;;;;;;;1.17;1.05;;;14.50;83.90;;;;;;2284611;62;30284;-68
2022/01/04 10:07:49;;;;;;;4.50;1.60;;;14.50;83.90;;;;;;2284478;62;30646;-68
2022/01/04 10:10:16;;;;;;;1.58;1.23;;;14.50;83.80;;;;;;2284673;62;30669;-68
2022/01/04 10:12:51;;;;;;;2.97;1.27;;;14.50;83.80;;;;;;2270594;62;31016;-69
2022/01/04 10:15:30;;;;;;;5.53;1.58;;;14.50;83.80;;;;;;2277239;62;30462;-68
2022/01/04 10:17:56;;;;;;;4.93;1.30;;;14.50;83.80;;;;;;2284558;62;30146;-68
2022/01/04 10:20:22;;;;;;;3.38;1.15;;;14.50;83.80;;;;;;2276873;62;30346;-69
2022/01/04 10:22:50;;;;;;;1.95;1.30;;;14.50;83.70;;;;;;2284311;62;30858;-68
2022/01/04 10:25:17;;;;;;;2.20;1.45;;;14.50;83.80;;;;;;2270574;62;30417;-68
2022/01/04 10:27:50;;;;;;;1.48;1.23;;;14.50;83.80;;;;;;2274034;62;31821;-69
2022/01/04 10:30:27;;;;;;;2.13;1.00;;;14.50;83.90;;;;;;2280231;62;30287;-68
2022/01/04 10:33:09;;;;;;;1.38;1.10;;;14.50;83.80;;;;;;2279559;62;30241;-68
2022/01/04 10:35:38;;;;;;;3.55;1.10;;;14.50;83.80;;;;;;2273221;62;30661;-68
2022/01/04 10:38:30;;;;;;;3.78;1.08;;;14.50;83.90;;;;;;2280451;62;30491;-67
2022/01/04 10:41:03;;;;;;;2.13;1.15;;;14.40;83.70;;;;;;2269056;62;30250;-67
2022/01/04 10:43:30;;;;;;;3.25;1.13;;;14.40;83.80;;;;;;2268609;62;30830;-67
2022/01/04 10:45:56;;;;;;;2.15;1.23;;;14.40;83.80;;;;;;2268929;62;30143;-67
2022/01/04 10:48:24;;;;;;;3.85;1.02;;;14.40;83.80;;;;;;2276587;62;30921;-67
2022/01/04 10:50:54;;;;;;;3.28;1.00;;;14.40;83.80;;;;;;2275993;62;30233;-67
2022/01/04 10:53:28;;;;;;;2.33;1.08;;;14.40;83.70;;;;;;2262355;62;30138;-68
2022/01/04 10:56:03;;;;;;;2.42;1.02;;;14.40;83.80;;;;;;2268636;62;31692;-68
2022/01/04 10:58:33;;;;;;;2.05;1.10;;;14.40;83.70;;;;;;2262479;62;30343;-69
2022/01/04 11:01:01;;;;;;;1.48;1.10;;;14.30;83.70;;;;;;2275910;62;30235;-68
2022/01/04 11:03:29;;;;;;;1.55;1.13;;;14.40;83.70;;;;;;2275492;62;30901;-68
2022/01/04 11:05:57;;;;;;;1.65;1.00;;;14.30;83.60;;;;;;2262336;62;30196;-68
2022/01/04 11:08:23;;;;;;;1.65;1.00;;;14.30;83.60;;;;;;2283425;62;30160;-68
2022/01/04 11:10:50;;;;;;;1.77;0.88;;;14.30;83.50;;;;;;2284124;62;30093;-68
2022/01/04 11:13:17;;;;;;;2.75;0.98;;;14.30;83.50;;;;;;2284060;62;30679;-68
2022/01/04 11:15:43;;;;;;;1.80;0.98;;;14.30;83.50;;;;;;2284290;62;30290;-68
2022/01/04 11:18:12;;;;;;;3.17;1.23;;;14.30;83.50;;;;;;2283805;62;30192;-69
2022/01/04 11:20:39;;;;;;;1.60;0.85;;;14.30;83.50;;;;;;2284306;62;30582;-69
2022/01/04 11:23:05;;;;;;;1.45;0.75;;;14.30;83.50;;;;;;2284203;62;30260;-69
2022/01/04 11:25:32;;;;;;;7.65;1.02;;;14.30;84.20;;;;;;2276706;62;31380;-68
2022/01/04 11:28:00;;;;;;;2.28;1.17;;;14.30;83.40;;;;;;2276783;62;30344;-68
2022/01/04 11:30:38;;;;;;;3.22;0.98;;;14.30;83.50;;;;;;2284274;62;30291;-69
2022/01/04 11:33:09;;;;;;;1.52;0.73;;;14.30;83.40;;;;;;2278205;62;30297;-68
2022/01/04 11:35:35;;;;;;;2.15;1.08;;;14.30;83.40;;;;;;2276772;62;30371;-67
2022/01/04 11:38:01;;;;;;;0.85;0.65;;;14.30;83.40;;;;;;2284126;62;30326;-67
2022/01/04 11:40:34;;;;;;;3.25;0.98;;;14.30;83.30;;;;;;2284067;62;30189;-70
2022/01/04 11:43:00;;;;;;;1.42;0.90;;;14.30;83.30;;;;;;2278240;62;30356;-70
2022/01/04 11:45:45;;;;;;;1.63;0.88;;;14.30;83.30;;;;;;2271091;62;30397;-67
2022/01/04 11:48:30;;;;;;;1.98;0.65;;;14.30;83.20;;;;;;2277847;62;30250;-67
2022/01/04 11:51:03;;;;;;;4.25;1.00;;;14.30;83.10;;;;;;2277555;62;30108;-68
2022/01/04 11:53:31;;;;;;;2.30;0.98;;;14.30;83.30;;;;;;2278039;62;30325;-68
2022/01/04 11:56:03;;;;;;;1.27;0.93;;;14.30;83.30;;;;;;2282661;62;31464;-68
2022/01/04 11:58:45;;;;;;;3.40;0.80;;;14.30;83.30;;;;;;2269934;62;30120;-74
2022/01/04 12:01:14;;;;;;;3.35;0.90;;;14.30;83.20;;;;;;2270336;62;30210;-73
2022/01/04 12:03:48;;;;;;;3.60;1.00;;;14.30;83.10;;;;;;2278017;62;30454;-73
2022/01/04 12:06:20;;;;;;;1.00;0.50;;;14.30;83.00;;;;;;2271320;62;30480;-73
2022/01/04 12:08:59;;;;;;;4.82;0.90;;;14.40;82.90;;;;;;2275908;62;30009;-75
2022/01/04 12:11:26;;;;;;;0.77;0.77;;;14.50;82.90;;;;;;2285329;62;30072;-74
2022/01/04 12:13:57;;;;;;;1.55;0.82;;;14.50;82.70;;;;;;2285005;62;31156;-74
2022/01/04 12:16:37;;;;;;;2.53;0.75;;;14.60;82.60;;;;;;2271230;62;30601;-74
2022/01/04 12:19:07;;;;;;;1.55;0.88;;;14.70;82.50;;;;;;2285183;62;30175;-74
2022/01/04 12:21:44;;;;;;;1.73;0.90;;;14.80;82.40;;;;;;2270861;62;30067;-73
2022/01/04 12:24:12;;;;;;;1.30;0.95;;;14.80;82.40;;;;;;2285241;62;30099;-72
2022/01/04 12:26:38;;;;;;;1.48;0.55;;;14.90;82.20;;;;;;2269922;62;30557;-73
2022/01/04 12:29:10;;;;;;;0.50;0.50;;;14.90;82.10;;;;;;2270892;62;30642;-73
2022/01/04 12:31:46;;;;;;;1.80;0.90;;;14.90;82.00;;;;;;2285377;62;30247;-73
2022/01/04 12:34:25;;;;;;;1.05;0.70;;;15.00;82.00;;;;;;2270417;62;31809;-67
2022/01/04 12:36:52;;;;;;;0.85;0.70;;;15.00;81.90;;;;;;2276912;62;30357;-67
2022/01/04 12:39:19;;;;;;;0.65;0.60;;;15.00;81.90;;;;;;2269557;62;30239;-68
2022/01/04 12:41:51;;;;;;;3.03;0.82;;;15.10;82.00;;;;;;2276727;62;30433;-68
2022/01/04 12:44:23;;;;;;;2.25;0.60;;;15.00;82.00;;;;;;2276862;62;31330;-68
2022/01/04 12:46:50;;;;;;;2.30;0.98;;;15.00;81.90;;;;;;2269486;62;30171;-68
2022/01/04 12:49:21;;;;;;;2.08;0.60;;;15.00;82.00;;;;;;2276667;62;30262;-67
2022/01/04 12:51:52;;;;;;;0.90;0.50;;;15.00;82.00;;;;;;2276782;62;30172;-68
2022/01/04 12:54:19;;;;;;;2.05;1.00;;;15.00;82.00;;;;;;2269795;62;30072;-68
2022/01/04 12:56:53;;;;;;;0.60;0.60;;;15.00;82.00;;;;;;2276653;62;30270;-68